Time;durP1;ratioP1;P1;durP2;ratioP2;P2;SDS_P1;SDS_P2;PMS_P1;PMS_P2;Temp;Humidity;BMP_temperature;BMP_pressure;BME280_temperature;BME280_humidity;BME280_pressure;Samples;Min_cycle;Max_cycle;Signal;HPM_P1;HPM_P2
2021/12/14 00:01:24;;;;;;;7.78;2.40;;;;;;;8.42;100.00;101764.09;5081298;28;20476;-50
2021/12/14 00:03:55;;;;;;;1.27;0.82;;;;;;;8.44;100.00;101764.78;5083864;28;20028;-49
2021/12/14 00:06:22;;;;;;;5.45;1.50;;;;;;;8.40;100.00;101762.56;5082826;28;20032;-52
2021/12/14 00:08:56;;;;;;;3.85;0.73;;;;;;;8.39;100.00;101760.84;5081705;28;20051;-49
2021/12/14 00:16:47;;;;;;;3.38;1.17;;;;;;;8.42;100.00;101748.22;5079059;28;20569;-48
2021/12/14 00:19:13;;;;;;;0.57;0.57;;;;;;;8.40;100.00;101750.16;5079108;28;20060;-52
2021/12/14 00:21:42;;;;;;;4.68;1.75;;;;;;;8.41;100.00;101751.81;5082300;28;20127;-49
2021/12/14 00:24:11;;;;;;;3.10;0.45;;;;;;;8.40;100.00;101744.88;5080026;28;20485;-48
2021/12/14 00:26:36;;;;;;;3.88;1.60;;;;;;;8.40;100.00;101741.41;5079367;28;20059;-52
2021/12/14 00:29:03;;;;;;;3.95;0.80;;;;;;;8.39;100.00;101737.94;5081578;28;20054;-50
2021/12/14 00:31:28;;;;;;;3.10;1.17;;;;;;;8.39;100.00;101732.66;5077476;28;20048;-48
2021/12/14 00:33:59;;;;;;;1.55;1.00;;;;;;;8.40;100.00;101738.78;5081710;28;20558;-49
2021/12/14 00:36:25;;;;;;;2.17;0.80;;;;;;;8.39;100.00;101731.78;5081365;28;20035;-51
2021/12/14 00:38:56;;;;;;;4.80;1.27;;;;;;;8.40;100.00;101736.13;5085418;28;20048;-48
2021/12/14 00:41:26;;;;;;;1.05;0.77;;;;;;;8.40;100.00;101739.59;5085624;28;20420;-48
2021/12/14 00:43:51;;;;;;;3.03;1.45;;;;;;;8.41;100.00;101740.44;5072424;28;20396;-52
2021/12/14 00:46:17;;;;;;;1.10;0.65;;;;;;;8.41;100.00;101741.25;5081466;28;20031;-50
2021/12/14 00:48:44;;;;;;;3.53;0.93;;;;;;;8.42;100.00;101740.28;5083375;28;20587;-50
2021/12/14 00:51:10;;;;;;;3.40;0.95;;;;;;;8.46;100.00;101743.47;5083795;28;20036;-49
2021/12/14 00:53:36;;;;;;;1.50;0.88;;;;;;;8.45;100.00;101737.34;5080701;28;20042;-52
2021/12/14 00:56:07;;;;;;;2.97;0.77;;;;;;;8.44;100.00;101735.69;5079208;28;20183;-51
2021/12/14 00:58:32;;;;;;;3.72;0.70;;;;;;;8.46;100.00;101752.22;5086477;28;20016;-51
2021/12/14 01:01:04;;;;;;;5.70;1.23;;;;;;;8.45;100.00;101742.63;5087869;28;20420;-49
2021/12/14 01:03:33;;;;;;;1.10;1.02;;;;;;;8.46;100.00;101754.88;5087628;28;20028;-50
2021/12/14 01:06:01;;;;;;;7.38;1.00;;;;;;;8.46;100.00;101744.28;5084948;28;20037;-50
2021/12/14 01:08:31;;;;;;;2.53;1.48;;;;;;;8.47;100.00;101740.69;5086922;28;20496;-48
2021/12/14 01:11:06;;;;;;;1.20;0.80;;;;;;;8.49;100.00;101737.88;5085234;28;20036;-48
2021/12/14 01:13:37;;;;;;;1.05;0.50;;;;;;;8.49;100.00;101735.25;5086318;28;20032;-49
2021/12/14 01:16:16;;;;;;;3.08;0.65;;;;;;;8.49;100.00;101745.81;5087322;28;20023;-50
2021/12/14 01:18:48;;;;;;;5.32;1.63;;;;;;;8.48;100.00;101747.63;5086578;28;20031;-48
2021/12/14 01:21:39;;;;;;;1.30;0.82;;;;;;;8.49;100.00;101751.97;5085623;28;20044;-52
2021/12/14 01:24:23;;;;;;;1.27;0.93;;;;;;;8.51;100.00;101760.53;5081844;28;20442;-50
2021/12/14 01:26:48;;;;;;;3.72;0.90;;;;;;;8.50;100.00;101763.34;5086696;28;20040;-47
2021/12/14 01:29:17;;;;;;;1.70;0.50;;;;;;;8.50;100.00;101761.53;5087386;28;20358;-53
2021/12/14 01:31:43;;;;;;;0.73;0.73;;;;;;;8.49;100.00;101766.97;5085586;28;20508;-50
2021/12/14 01:34:21;;;;;;;1.52;1.42;;;;;;;8.50;100.00;101766.81;5087193;28;20035;-48
2021/12/14 01:36:52;;;;;;;3.47;1.23;;;;;;;8.51;100.00;101765.84;5081884;28;20024;-47
2021/12/14 01:41:57;;;;;;;1.38;0.70;;;;;;;8.52;100.00;101762.22;5087252;28;20560;-49
2021/12/14 01:44:26;;;;;;;2.42;0.85;;;;;;;8.52;100.00;101758.75;5085290;28;20562;-49
2021/12/14 01:46:56;;;;;;;2.08;0.98;;;;;;;8.55;100.00;101761.09;5086376;28;20032;-51
2021/12/14 01:49:25;;;;;;;4.55;1.05;;;;;;;8.56;100.00;101764.56;5086142;28;20036;-51
2021/12/14 01:51:54;;;;;;;2.55;0.88;;;;;;;8.49;100.00;101765.16;5085486;28;20046;-46
2021/12/14 01:54:24;;;;;;;2.25;1.13;;;;;;;8.44;100.00;101767.41;5084693;28;20107;-51
2021/12/14 01:56:51;;;;;;;5.05;0.88;;;;;;;8.42;100.00;101769.38;5085757;28;20038;-48
2021/12/14 01:59:38;;;;;;;1.73;0.50;;;;;;;8.40;100.00;101762.56;5080813;28;20032;-46
2021/12/14 02:04:45;;;;;;;1.75;0.60;;;;;;;8.44;100.00;101793.00;5084656;28;20024;-48
2021/12/14 02:07:12;;;;;;;1.20;1.10;;;;;;;8.45;100.00;101778.81;5083413;28;20508;-48
2021/12/14 02:09:39;;;;;;;1.33;0.73;;;;;;;8.43;100.00;101776.31;5085491;28;20507;-52
2021/12/14 02:12:15;;;;;;;3.63;1.83;;;;;;;8.44;100.00;101783.28;5085083;28;20028;-50
2021/12/14 02:14:41;;;;;;;1.38;0.65;;;;;;;8.41;100.00;101782.72;5085461;28;20024;-49
2021/12/14 02:17:11;;;;;;;2.80;0.70;;;;;;;8.37;100.00;101781.31;5084636;28;20032;-50
2021/12/14 02:19:37;;;;;;;3.05;1.55;;;;;;;8.38;100.00;101782.97;5086834;28;20040;-46
2021/12/14 02:22:06;;;;;;;4.93;1.38;;;;;;;8.33;100.00;101785.22;5084485;28;20070;-51
2021/12/14 02:24:34;;;;;;;2.28;0.70;;;;;;;8.26;100.00;101784.94;5082499;28;20032;-50
2021/12/14 02:27:00;;;;;;;0.80;0.80;;;;;;;8.24;100.00;101786.94;5085474;28;20060;-50
2021/12/14 02:29:32;;;;;;;5.15;2.58;;;;;;;8.23;100.00;101779.97;5086144;28;20055;-48
2021/12/14 02:32:07;;;;;;;1.65;0.77;;;;;;;8.21;100.00;101780.13;5084927;28;20561;-51
2021/12/14 02:34:45;;;;;;;4.03;0.70;;;;;;;8.21;100.00;101781.91;5085044;28;20442;-49
2021/12/14 02:37:11;;;;;;;5.05;1.00;;;;;;;8.17;100.00;101780.53;5080223;28;20028;-50
2021/12/14 02:42:09;;;;;;;3.60;0.63;;;;;;;8.14;100.00;101776.38;5083184;28;20035;-50
2021/12/14 02:44:36;;;;;;;1.40;0.65;;;;;;;8.16;100.00;101773.56;5081300;28;20594;-49
2021/12/14 02:47:13;;;;;;;1.70;0.57;;;;;;;8.21;100.00;101779.25;5084744;28;20036;-46
2021/12/14 02:49:39;;;;;;;2.55;0.80;;;;;;;8.27;100.00;101778.72;5085389;28;20028;-48
2021/12/14 02:52:09;;;;;;;0.70;0.22;;;;;;;8.32;100.00;101783.56;5084161;28;20076;-51
2021/12/14 02:54:42;;;;;;;4.03;1.75;;;;;;;8.35;100.00;101784.09;5079198;28;20246;-51
2021/12/14 02:57:16;;;;;;;0.75;0.73;;;;;;;8.38;100.00;101777.69;5084363;28;20032;-47
2021/12/14 02:59:44;;;;;;;2.55;0.43;;;;;;;8.37;100.00;101782.16;5084849;28;20040;-50
2021/12/14 03:02:14;;;;;;;0.85;0.25;;;;;;;8.40;100.00;101787.19;5085733;28;20093;-51
2021/12/14 03:04:46;;;;;;;5.20;0.85;;;;;;;8.41;100.00;101782.72;5084449;28;20519;-50
2021/12/14 03:07:14;;;;;;;4.20;1.05;;;;;;;8.47;100.00;101793.56;5086165;28;20032;-47
2021/12/14 03:12:32;;;;;;;4.93;0.77;;;;;;;8.48;100.00;101784.63;5083668;28;20036;-53
2021/12/14 03:15:11;;;;;;;1.85;0.82;;;;;;;8.49;100.00;101791.59;5084144;28;20123;-49
2021/12/14 03:17:39;;;;;;;1.15;0.80;;;;;;;8.51;100.00;101783.50;5083422;28;20461;-50
2021/12/14 03:20:10;;;;;;;5.25;1.42;;;;;;;8.52;100.00;101786.03;5083619;28;20093;-50
2021/12/14 03:22:42;;;;;;;1.27;0.70;;;;;;;8.54;100.00;101783.22;5075446;28;20024;-50
2021/12/14 03:25:09;;;;;;;3.88;0.55;;;;;;;8.58;100.00;101783.78;5080271;28;20879;-51
2021/12/14 03:27:39;;;;;;;2.25;0.68;;;;;;;8.60;100.00;101781.81;5080083;28;20461;-49
2021/12/14 03:30:18;;;;;;;1.73;0.75;;;;;;;8.61;100.00;101776.38;5083309;28;20506;-50
2021/12/14 03:32:43;;;;;;;3.08;0.77;;;;;;;8.61;100.00;101783.47;5076869;28;20039;-49
2021/12/14 03:35:09;;;;;;;1.23;0.80;;;;;;;8.60;100.00;101781.81;5082538;28;20400;-48
2021/12/14 03:37:34;;;;;;;4.25;2.53;;;;;;;8.61;100.00;101784.31;5081519;28;20381;-51
2021/12/14 03:40:03;;;;;;;4.30;1.45;;;;;;;8.63;100.00;101784.16;5083979;28;20043;-47
2021/12/14 03:42:38;;;;;;;5.70;1.58;;;;;;;8.62;100.00;101774.56;5085564;28;20027;-46
2021/12/14 03:45:08;;;;;;;3.65;0.90;;;;;;;8.62;100.00;101769.25;5082058;28;20488;-52
2021/12/14 03:47:38;;;;;;;2.40;0.93;;;;;;;8.63;100.00;101778.88;5080879;28;20032;-47
2021/12/14 03:50:06;;;;;;;4.15;1.17;;;;;;;8.62;100.00;101774.56;5083846;28;20503;-49
2021/12/14 03:52:36;;;;;;;9.35;2.08;;;;;;;8.62;100.00;101782.47;5078241;28;20032;-51
2021/12/14 03:55:13;;;;;;;2.80;1.38;;;;;;;8.62;100.00;101782.47;5080748;28;20024;-50
2021/12/14 03:57:39;;;;;;;2.50;1.23;;;;;;;8.61;100.00;101786.13;5084121;28;20035;-47
2021/12/14 04:00:11;;;;;;;6.30;0.82;;;;;;;8.62;100.00;101785.97;5085614;28;20618;-48
2021/12/14 04:02:36;;;;;;;2.53;0.80;;;;;;;8.62;100.00;101785.13;5086950;28;20055;-48
2021/12/14 04:05:09;;;;;;;1.88;0.75;;;;;;;8.63;100.00;101784.16;5083715;28;20109;-49
2021/12/14 04:07:40;;;;;;;2.95;1.05;;;;;;;8.63;100.00;101789.47;5088237;28;20038;-52
2021/12/14 04:10:11;;;;;;;3.70;0.87;;;;;;;8.60;100.00;101787.94;5079882;28;20510;-47
2021/12/14 04:12:36;;;;;;;4.63;1.70;;;;;;;8.59;100.00;101788.06;5086527;28;20129;-47
2021/12/14 04:15:04;;;;;;;3.70;0.75;;;;;;;8.59;100.00;101785.44;5088725;28;20118;-47
2021/12/14 04:17:30;;;;;;;5.03;1.90;;;;;;;8.57;100.00;101790.03;5089583;28;20163;-48
2021/12/14 04:19:56;;;;;;;2.15;0.93;;;;;;;8.59;100.00;101794.19;5086942;28;20031;-48
2021/12/14 04:22:27;;;;;;;2.00;0.57;;;;;;;8.61;100.00;101799.34;5084198;28;20028;-49
2021/12/14 04:24:58;;;;;;;8.75;0.80;;;;;;;8.61;100.00;101794.88;5088223;28;20460;-50
2021/12/14 04:27:27;;;;;;;3.78;0.90;;;;;;;8.62;100.00;101798.34;5084439;28;20043;-49
2021/12/14 04:29:53;;;;;;;11.27;1.27;;;;;;;8.60;100.00;101800.31;5083031;28;20092;-46
2021/12/14 04:32:20;;;;;;;5.68;1.50;;;;;;;8.58;100.00;101807.56;5087581;28;20358;-50
2021/12/14 04:34:48;;;;;;;3.30;0.73;;;;;;;8.58;100.00;101810.22;5087595;28;20040;-51
2021/12/14 04:37:16;;;;;;;1.70;0.85;;;;;;;8.58;100.00;101804.91;5087418;28;20028;-50
2021/12/14 04:39:55;;;;;;;9.20;1.10;;;;;;;8.58;100.00;101797.00;5083430;28;20036;-46
2021/12/14 04:53:39;;;;;;;3.80;0.93;;;;;;;8.50;100.00;101797.72;5088552;28;20105;-50
2021/12/14 04:56:08;;;;;;;7.28;0.73;;;;;;;8.48;100.00;101799.66;5082672;28;20073;-51
2021/12/14 04:58:38;;;;;;;4.05;1.73;;;;;;;8.49;100.00;101799.53;5083055;28;20040;-50
2021/12/14 05:01:06;;;;;;;6.50;1.05;;;;;;;8.47;100.00;101798.00;5087175;28;20093;-50
2021/12/14 05:03:43;;;;;;;4.88;2.42;;;;;;;8.39;100.00;101814.59;5087032;28;20077;-46
2021/12/14 05:06:19;;;;;;;3.80;1.17;;;;;;;8.30;100.00;101808.31;5086209;28;20035;-47
2021/12/14 05:11:18;;;;;;;3.73;1.00;;;;;;;8.26;100.00;101814.00;5087993;28;20035;-46
2021/12/14 05:13:48;;;;;;;3.78;2.40;;;;;;;8.23;100.00;101811.66;5086550;28;21291;-48
2021/12/14 05:16:19;;;;;;;2.25;1.52;;;;;;;8.19;100.00;101805.03;5087160;28;20036;-50
2021/12/14 05:18:49;;;;;;;4.60;0.82;;;;;;;8.12;100.00;101807.38;5082962;28;20490;-48
2021/12/14 05:21:34;;;;;;;4.68;0.75;;;;;;;8.09;100.00;101800.56;5088022;28;20036;-49
2021/12/14 05:24:04;;;;;;;3.38;1.00;;;;;;;8.06;100.00;101806.16;5086941;28;21058;-49
2021/12/14 05:26:29;;;;;;;2.65;1.10;;;;;;;8.08;100.00;101812.13;5084967;28;20032;-47
2021/12/14 05:28:56;;;;;;;8.20;1.98;;;;;;;8.08;100.00;101813.94;5084175;28;20052;-49
2021/12/14 05:31:21;;;;;;;2.00;1.00;;;;;;;8.07;100.00;101813.09;5082450;28;20028;-50
2021/12/14 05:33:47;;;;;;;4.90;1.60;;;;;;;8.05;100.00;101815.06;5086643;28;20051;-50
2021/12/14 05:36:17;;;;;;;3.22;1.38;;;;;;;8.12;100.00;101809.19;5087744;28;20032;-51
2021/12/14 05:43:06;;;;;;;5.45;1.30;;;;;;;8.01;100.00;101815.47;5081030;28;20028;-49
2021/12/14 05:44:02;;;;;;;5.13;2.28;;;;;;;8.01;100.00;101824.22;5086529;28;20043;-48
2021/12/14 05:46:28;;;;;;;2.50;1.38;;;;;;;8.10;100.00;101833.09;5080956;28;20493;-49
2021/12/14 05:49:05;;;;;;;2.53;2.00;;;;;;;8.16;100.00;101826.41;5086559;28;20473;-51
2021/12/14 05:51:32;;;;;;;8.35;1.08;;;;;;;8.18;100.00;101829.75;5073888;28;20056;-46
2021/12/14 05:53:58;;;;;;;4.60;0.77;;;;;;;8.20;100.00;101826.00;5085533;28;20476;-49
2021/12/14 05:56:26;;;;;;;2.22;1.15;;;;;;;8.22;100.00;101826.69;5075166;28;20040;-52
2021/12/14 05:58:57;;;;;;;1.48;0.88;;;;;;;8.23;100.00;101830.16;5083158;28;20482;-46
2021/12/14 06:01:26;;;;;;;4.55;0.93;;;;;;;8.26;100.00;101835.16;5085549;28;20036;-51
2021/12/14 06:04:04;;;;;;;2.58;1.95;;;;;;;8.30;100.00;101831.25;5084591;28;20120;-49
2021/12/14 06:06:34;;;;;;;9.07;1.75;;;;;;;8.32;100.00;101826.69;5084414;28;20161;-51
2021/12/14 06:09:10;;;;;;;8.05;1.55;;;;;;;8.33;100.00;101838.91;5084418;28;20430;-51
2021/12/14 06:11:37;;;;;;;11.25;2.10;;;;;;;8.33;100.00;101844.19;5080856;28;20027;-48
2021/12/14 06:14:03;;;;;;;5.00;1.55;;;;;;;8.33;100.00;101844.19;5087134;28;20035;-48
2021/12/14 06:16:32;;;;;;;7.03;1.23;;;;;;;8.34;100.00;101847.66;5081989;28;20076;-46
2021/12/14 06:19:21;;;;;;;5.15;2.25;;;;;;;8.34;100.00;101848.50;5086809;28;20028;-51
2021/12/14 06:21:51;;;;;;;6.55;1.20;;;;;;;8.37;100.00;101847.41;5077266;28;20331;-49
2021/12/14 06:24:17;;;;;;;7.32;2.33;;;;;;;8.35;100.00;101855.47;5079972;28;20496;-50
2021/12/14 06:26:54;;;;;;;4.20;1.10;;;;;;;8.38;100.00;101852.53;5082008;28;20032;-51
2021/12/14 06:29:27;;;;;;;2.85;0.95;;;;;;;8.39;100.00;101858.63;5084475;28;20156;-50
2021/12/14 06:31:53;;;;;;;6.18;1.42;;;;;;;8.40;100.00;101861.19;5086455;28;20047;-50
2021/12/14 06:34:28;;;;;;;4.05;1.13;;;;;;;8.41;100.00;101857.53;5084689;28;20035;-48
2021/12/14 06:40:12;;;;;;;3.60;1.58;;;;;;;8.42;100.00;101867.16;5082640;28;20048;-50
2021/12/14 06:42:41;;;;;;;3.92;1.50;;;;;;;8.44;100.00;101856.44;5087254;28;20020;-49
2021/12/14 06:45:12;;;;;;;10.98;2.28;;;;;;;8.44;100.00;101862.56;5084729;28;20024;-48
2021/12/14 06:47:40;;;;;;;4.45;1.33;;;;;;;8.45;100.00;101858.94;5069924;28;20447;-51
2021/12/14 06:50:13;;;;;;;1.95;1.45;;;;;;;8.46;100.00;101860.59;5082193;28;20081;-46
2021/12/14 06:52:40;;;;;;;4.22;1.00;;;;;;;8.47;100.00;101864.91;5083798;28;20399;-49
2021/12/14 06:55:06;;;;;;;4.47;2.03;;;;;;;8.48;100.00;101871.88;5079418;28;20585;-49
2021/12/14 06:57:33;;;;;;;6.60;1.90;;;;;;;8.49;100.00;101878.84;5083901;28;20138;-50
2021/12/14 06:59:59;;;;;;;8.95;2.50;;;;;;;8.54;100.00;101880.19;5078784;28;20122;-48
2021/12/14 07:02:26;;;;;;;4.88;1.50;;;;;;;8.58;100.00;101877.13;5086368;28;20034;-48
2021/12/14 07:04:52;;;;;;;8.88;2.05;;;;;;;8.59;100.00;101886.72;5081066;28;20076;-48
2021/12/14 07:07:22;;;;;;;5.75;2.78;;;;;;;8.61;100.00;101876.00;5086452;28;20440;-52
2021/12/14 07:09:55;;;;;;;5.13;1.63;;;;;;;8.62;100.00;101882.94;5085495;28;20384;-48
2021/12/14 07:12:24;;;;;;;8.57;2.40;;;;;;;8.63;100.00;101882.00;5083748;28;20095;-50
2021/12/14 07:14:50;;;;;;;3.72;1.42;;;;;;;8.63;100.00;101871.41;5077871;28;20959;-47
2021/12/14 07:17:29;;;;;;;4.78;1.63;;;;;;;8.64;100.00;101884.47;5083958;28;20059;-50
2021/12/14 07:20:01;;;;;;;10.23;2.42;;;;;;;8.69;100.00;101882.22;5081628;28;20047;-48
2021/12/14 07:22:32;;;;;;;;;;;;;;;8.70;100.00;101880.44;5082333;28;20036;-48
2021/12/14 07:25:05;;;;;;;3.20;1.50;;;;;;;8.67;100.00;101881.56;5075237;28;19979;-47
2021/12/14 07:27:35;;;;;;;8.13;2.40;;;;;;;8.68;100.00;101877.09;5085819;28;20040;-47
2021/12/14 07:30:13;;;;;;;6.05;3.25;;;;;;;8.68;100.00;101874.47;5079516;28;20047;-48
2021/12/14 07:32:43;;;;;;;8.00;2.55;;;;;;;8.69;100.00;101876.13;5086445;28;20094;-52
2021/12/14 07:35:20;;;;;;;6.32;2.53;;;;;;;8.71;100.00;101890.03;5080466;28;20043;-49
2021/12/14 07:37:46;;;;;;;5.07;2.38;;;;;;;8.71;100.00;101890.03;5081563;28;20066;-47
2021/12/14 07:40:12;;;;;;;11.25;2.45;;;;;;;8.69;100.00;101891.97;5075710;28;20228;-49
2021/12/14 07:42:38;;;;;;;2.58;2.38;;;;;;;8.73;100.00;101896.84;5081458;28;20354;-48
2021/12/14 07:45:06;;;;;;;7.75;3.58;;;;;;;8.76;100.00;101898.38;5082639;28;20044;-48
2021/12/14 07:47:32;;;;;;;7.15;2.55;;;;;;;8.76;100.00;101903.66;5078660;28;20107;-47
2021/12/14 07:49:59;;;;;;;9.45;4.30;;;;;;;8.76;100.00;101902.84;5080979;28;20115;-51
2021/12/14 07:52:35;;;;;;;8.25;2.42;;;;;;;8.75;100.00;101907.25;5081464;28;20030;-46
2021/12/14 07:55:17;;;;;;;9.93;2.55;;;;;;;8.73;100.00;101902.13;5075904;28;20063;-47
2021/12/14 07:57:45;;;;;;;8.00;2.03;;;;;;;8.75;100.00;101901.97;5083647;28;20500;-50
2021/12/14 08:00:10;;;;;;;7.28;2.20;;;;;;;8.76;100.00;101905.47;5082029;28;20043;-52
2021/12/14 08:02:40;;;;;;;5.78;2.35;;;;;;;8.77;100.00;101923.00;5074275;28;20085;-50
2021/12/14 08:05:16;;;;;;;5.38;2.85;;;;;;;8.77;100.00;101912.41;5075457;28;20051;-50
2021/12/14 08:07:48;;;;;;;4.45;2.42;;;;;;;8.75;100.00;101912.56;5076409;28;20102;-50
2021/12/14 08:10:16;;;;;;;6.70;2.15;;;;;;;8.72;100.00;101913.69;5075117;28;20047;-50
2021/12/14 08:12:46;;;;;;;5.45;1.42;;;;;;;8.74;100.00;101913.53;5073213;28;20032;-52
2021/12/14 08:15:33;;;;;;;4.55;3.08;;;;;;;8.75;100.00;101923.13;5079537;28;20036;-49
2021/12/14 08:18:09;;;;;;;2.35;1.60;;;;;;;8.75;100.00;101920.47;5079995;28;20074;-51
2021/12/14 08:20:39;;;;;;;7.97;2.35;;;;;;;8.78;100.00;101922.00;5074472;28;20064;-46
2021/12/14 08:23:23;;;;;;;4.85;2.35;;;;;;;8.80;100.00;101928.00;5083038;28;20024;-51
2021/12/14 08:25:53;;;;;;;9.60;4.18;;;;;;;8.83;100.00;101925.91;5077353;28;20102;-49
2021/12/14 08:28:21;;;;;;;4.10;1.63;;;;;;;8.85;100.00;101931.03;5079194;28;20032;-46
2021/12/14 08:30:58;;;;;;;4.13;2.15;;;;;;;8.87;100.00;101932.56;5080128;28;20040;-52
2021/12/14 08:33:25;;;;;;;6.35;2.30;;;;;;;8.88;100.00;101936.91;5082958;28;20032;-47
2021/12/14 08:35:53;;;;;;;7.57;1.98;;;;;;;8.89;100.00;101929.78;5080655;28;20028;-48
2021/12/14 08:38:19;;;;;;;9.65;3.05;;;;;;;8.88;100.00;101928.09;5079884;28;20550;-53
2021/12/14 08:40:50;;;;;;;11.13;2.17;;;;;;;8.91;100.00;101933.97;5073900;28;20043;-50
2021/12/14 08:43:26;;;;;;;3.35;1.63;;;;;;;8.94;100.00;101940.78;5074840;28;20311;-46
2021/12/14 08:45:57;;;;;;;5.15;2.20;;;;;;;8.93;100.00;101939.94;5083712;28;20055;-49
2021/12/14 08:48:30;;;;;;;2.83;1.58;;;;;;;8.93;100.00;101941.72;5084972;28;20438;-50
2021/12/14 08:51:13;;;;;;;14.95;3.20;;;;;;;8.97;100.00;101939.66;5079800;28;20042;-51
2021/12/14 08:53:41;;;;;;;4.32;2.00;;;;;;;8.99;100.00;101940.34;5087330;28;20143;-51
2021/12/14 08:56:11;;;;;;;8.63;2.30;;;;;;;9.01;100.00;101938.34;5080891;28;20028;-49
2021/12/14 08:58:37;;;;;;;12.98;3.05;;;;;;;9.02;100.00;101943.53;5082238;28;20481;-46
2021/12/14 09:01:12;;;;;;;8.20;2.47;;;;;;;9.02;100.00;101943.53;5075696;28;20288;-48
2021/12/14 09:03:44;;;;;;;8.15;2.63;;;;;;;9.05;100.00;101951.16;5086008;28;20380;-47
2021/12/14 09:06:15;;;;;;;5.43;1.95;;;;;;;9.06;100.00;101955.50;5086260;28;20120;-49
2021/12/14 09:08:42;;;;;;;7.40;2.80;;;;;;;9.10;100.00;101953.38;5088460;28;20028;-49
2021/12/14 09:11:10;;;;;;;3.63;1.75;;;;;;;9.14;100.00;101957.41;5078606;28;20036;-48
2021/12/14 09:13:36;;;;;;;5.03;1.92;;;;;;;9.15;100.00;101956.44;5084973;28;20032;-50
2021/12/14 09:16:13;;;;;;;6.90;2.67;;;;;;;9.18;100.00;101962.25;5087362;28;20044;-47
2021/12/14 09:18:46;;;;;;;13.00;2.95;;;;;;;9.22;100.00;101962.81;5086419;28;20032;-48
2021/12/14 09:21:21;;;;;;;7.43;1.83;;;;;;;9.26;100.00;101955.41;5075200;28;20242;-51
2021/12/14 09:23:50;;;;;;;5.05;1.70;;;;;;;9.31;100.00;101966.38;5074951;28;20028;-49
2021/12/14 09:26:21;;;;;;;7.60;1.35;;;;;;;9.37;100.00;101965.78;5085796;28;20115;-47
2021/12/14 09:28:47;;;;;;;11.25;1.95;;;;;;;9.43;100.00;101969.69;5087653;28;20032;-47
2021/12/14 09:31:19;;;;;;;2.53;1.80;;;;;;;9.47;100.00;101966.56;5087919;28;20032;-51
2021/12/14 09:33:45;;;;;;;;;;;;;;;9.50;100.00;101970.72;5082974;28;20032;-48
2021/12/14 09:36:13;;;;;;;12.52;1.35;;;;;;;9.53;100.00;101971.28;5087258;28;19926;-48
2021/12/14 09:38:47;;;;;;;1.77;0.75;;;;;;;9.56;100.00;101971.00;5084708;28;20040;-52
2021/12/14 09:41:18;;;;;;;8.43;2.00;;;;;;;9.60;100.00;101966.22;5079217;28;20086;-51
2021/12/14 09:43:46;;;;;;;4.47;1.15;;;;;;;9.63;100.00;101967.75;5081895;28;20111;-50
2021/12/14 09:46:12;;;;;;;9.13;1.70;;;;;;;9.64;100.00;101962.31;5085418;28;20036;-49
2021/12/14 09:48:42;;;;;;;4.82;2.13;;;;;;;9.67;100.00;101967.31;5080950;28;20024;-50
2021/12/14 09:51:16;;;;;;;11.80;2.08;;;;;;;9.71;100.00;101965.22;5082858;28;20056;-49
2021/12/14 09:53:46;;;;;;;3.80;1.65;;;;;;;9.73;100.00;101965.88;5081094;28;20373;-50
2021/12/14 09:56:14;;;;;;;7.45;1.17;;;;;;;9.76;100.00;101969.06;5076661;28;20123;-52
2021/12/14 09:58:43;;;;;;;7.82;3.20;;;;;;;9.81;100.00;101968.63;5073068;28;20492;-53
2021/12/14 10:01:18;;;;;;;14.45;3.13;;;;;;;9.87;100.00;101978.63;5080955;28;20028;-50
2021/12/14 10:03:47;;;;;;;3.88;1.33;;;;;;;9.89;100.00;101984.59;5079006;28;20036;-49
2021/12/14 10:06:21;;;;;;;8.98;2.05;;;;;;;9.92;100.00;101975.53;5083167;28;20040;-52
2021/12/14 10:08:53;;;;;;;6.63;2.35;;;;;;;9.97;100.00;101979.38;5079849;28;20536;-52
2021/12/14 10:11:26;;;;;;;;;;;;;;;9.99;100.00;101982.72;5077393;28;20047;-50
2021/12/14 10:13:56;;;;;;;5.75;1.58;;;;;;;10.00;100.00;101984.38;5084879;28;19927;-46
2021/12/14 10:16:22;;;;;;;5.88;1.80;;;;;;;10.02;100.00;101987.72;5078248;28;20043;-49
2021/12/14 10:18:55;;;;;;;5.70;1.35;;;;;;;10.07;100.00;102000.53;5085221;28;20032;-50
2021/12/14 10:21:29;;;;;;;4.13;0.85;;;;;;;10.08;100.00;101990.75;5080351;28;20390;-52
2021/12/14 10:23:56;;;;;;;5.88;1.52;;;;;;;10.08;100.00;101996.03;5080327;28;20056;-47
2021/12/14 10:26:23;;;;;;;6.35;2.00;;;;;;;10.10;100.00;101997.56;5082146;28;20556;-50
2021/12/14 10:28:52;;;;;;;6.32;1.65;;;;;;;10.13;100.00;101999.91;5080091;28;20431;-49
2021/12/14 10:31:31;;;;;;;7.00;2.90;;;;;;;10.16;100.00;101991.66;5086400;28;20032;-48
2021/12/14 10:34:00;;;;;;;3.47;1.20;;;;;;;10.18;100.00;101997.63;5075174;28;20078;-51
2021/12/14 10:36:36;;;;;;;1.95;0.80;;;;;;;10.21;100.00;101999.16;5076568;28;20031;-50
2021/12/14 10:44:20;;;;;;;2.15;1.15;;;;;;;10.31;100.00;102005.25;5082486;28;20174;-51
2021/12/14 10:46:49;;;;;;;7.57;2.40;;;;;;;10.31;100.00;101994.63;5081129;28;20028;-48
2021/12/14 10:49:19;;;;;;;4.22;0.55;;;;;;;10.31;100.00;101994.63;5082453;28;20499;-48
2021/12/14 10:51:47;;;;;;;8.52;1.60;;;;;;;10.31;100.00;102002.59;5078983;28;20060;-50
2021/12/14 10:54:15;;;;;;;3.55;1.20;;;;;;;10.29;100.00;101988.66;5071149;28;20029;-48
2021/12/14 10:56:50;;;;;;;4.10;0.77;;;;;;;10.32;100.00;101987.50;5076177;28;20020;-48
2021/12/14 10:59:19;;;;;;;6.28;1.42;;;;;;;10.34;100.00;101993.50;5079159;28;20032;-50
2021/12/14 11:01:50;;;;;;;3.35;0.85;;;;;;;10.36;100.00;101980.94;5073129;28;20114;-47
2021/12/14 11:04:20;;;;;;;3.75;1.38;;;;;;;10.39;100.00;101976.13;5081964;28;20031;-48
2021/12/14 11:06:49;;;;;;;7.57;1.48;;;;;;;10.38;100.00;101982.44;5076653;28;20039;-52
2021/12/14 11:09:40;;;;;;;5.18;1.40;;;;;;;10.36;100.00;101983.59;5079063;28;20036;-48
2021/12/14 11:12:08;;;;;;;2.35;1.23;;;;;;;10.31;100.00;101983.22;5086361;28;20442;-48
2021/12/14 11:14:37;;;;;;;8.77;2.10;;;;;;;10.32;100.00;101987.50;5081011;28;20031;-47
2021/12/14 11:19:56;;;;;;;5.05;1.42;;;;;;;10.43;100.00;101982.81;5077575;28;20176;-52
2021/12/14 11:22:47;;;;;;;6.10;1.58;;;;;;;10.51;100.00;101986.50;5068436;28;20035;-49
2021/12/14 11:25:20;;;;;;;7.07;2.03;;;;;;;10.56;100.00;101984.22;5079178;28;20040;-48
2021/12/14 11:27:53;;;;;;;2.90;1.38;;;;;;;10.61;100.00;101985.44;5081776;28;20028;-49
2021/12/14 11:30:21;;;;;;;2.50;1.05;;;;;;;10.62;100.00;101979.13;5078720;28;20074;-50
2021/12/14 11:33:01;;;;;;;9.45;1.58;;;;;;;10.64;100.00;101977.16;5070384;28;20064;-50
2021/12/14 11:35:29;;;;;;;2.50;0.80;;;;;;;10.65;100.00;101981.47;5084871;28;20039;-50
2021/12/14 11:37:58;;;;;;;4.22;2.13;;;;;;;10.63;100.00;101972.84;5080710;28;20068;-50
2021/12/14 11:40:28;;;;;;;2.45;1.02;;;;;;;10.63;100.00;101980.78;5077790;28;20404;-50
2021/12/14 11:43:09;;;;;;;4.18;1.13;;;;;;;10.63;100.00;101991.41;5078264;28;20040;-48
2021/12/14 11:45:36;;;;;;;9.30;2.92;;;;;;;10.61;100.00;101988.09;5076578;28;20036;-47
2021/12/14 11:48:03;;;;;;;4.22;1.50;;;;;;;10.60;100.00;101981.09;5079969;28;20041;-47
2021/12/14 11:50:38;;;;;;;3.78;1.60;;;;;;;10.62;100.00;101984.44;5074286;28;20129;-51
2021/12/14 11:53:06;;;;;;;5.07;1.30;;;;;;;10.65;100.00;101980.66;5082737;28;20277;-51
2021/12/14 11:55:44;;;;;;;4.43;1.13;;;;;;;10.63;100.00;101990.56;5084290;28;20098;-46
2021/12/14 11:58:26;;;;;;;1.40;0.88;;;;;;;10.65;100.00;101988.59;5080563;28;20028;-52
2021/12/14 12:01:07;;;;;;;5.25;0.82;;;;;;;10.65;100.00;101980.66;5074657;28;20119;-48
2021/12/14 12:03:53;;;;;;;2.70;1.30;;;;;;;10.66;100.00;101972.56;5084409;28;20028;-49
2021/12/14 12:09:31;;;;;;;3.25;0.85;;;;;;;10.79;100.00;101960.66;5079626;28;20040;-47
2021/12/14 12:12:19;;;;;;;2.60;0.77;;;;;;;10.81;100.00;101962.19;5076262;28;20066;-50
2021/12/14 12:14:59;;;;;;;2.63;0.77;;;;;;;10.84;100.00;101961.91;5079490;28;20040;-50
2021/12/14 12:17:43;;;;;;;4.30;0.80;;;;;;;10.86;100.00;101951.09;5072547;28;20024;-50
2021/12/14 12:20:20;;;;;;;3.83;0.47;;;;;;;10.95;100.00;101955.47;5077986;28;20041;-47
2021/12/14 12:22:47;;;;;;;7.32;1.70;;;;;;;10.99;100.00;101942.72;5082332;28;20492;-47
2021/12/14 12:25:23;;;;;;;4.50;1.10;;;;;;;11.06;100.00;101944.59;5085736;28;20078;-50
2021/12/14 12:28:00;;;;;;;4.60;0.55;;;;;;;11.12;100.00;101935.97;5083738;28;20032;-51